KFWA

Fort Wayne International Airport

Fort Wayne, Indiana, USA
METAR KFWA 240154Z 09004KT 10SM FEW250 20/12 A3018 RMK AO2 SLP215 T02000122
Observed Flight Rules
May-24 @ 01:54 UTC (12 minutes ago) Visual Flight Rules
Wind Visibility Clouds
90° at 4 knots 10 miles
  • Few at 25,000' AGL
Temperatures Readings
Current 20°C / 68°F
Dewpoint 12°C / 54°F
Humidity 60%
Altimeter 30.18" Hg
Pressure 1021.5 hPa
Elevation 248
METAR KFWA 240154Z 09004KT 10SM FEW250 20/12 A3018 RMK AO2 SLP215 T02000122
Observed Flight Rules
May-24 @ 01:54 UTC
(12 minutes ago)
VFR
Wind Visibility
90° at 4 knots 10 miles
Clouds
  • Few at 25,000' AGL
Temperature Dewpoint
20°C / 68°F 12°C / 54°F
Humidity Altimeter Pressure
60% 30.18" Hg 1021.5 hPa